createdAt,value
2018-07-09T00:03:52.932Z,21.80
2018-07-09T00:08:56.927Z,21.70
2018-07-09T00:14:00.926Z,21.70
2018-07-09T00:19:05.366Z,21.60
2018-07-09T00:24:09.432Z,21.60
2018-07-09T00:29:13.393Z,21.70
2018-07-09T00:34:17.409Z,21.70
2018-07-09T00:39:21.441Z,21.80
2018-07-09T00:44:25.708Z,21.70
2018-07-09T00:49:29.722Z,21.60
2018-07-09T00:54:33.696Z,21.50
2018-07-09T00:59:37.748Z,21.50
2018-07-09T01:04:41.743Z,21.40
2018-07-09T01:09:45.722Z,21.30
2018-07-09T01:14:49.719Z,21.10
2018-07-09T01:19:53.920Z,21.20
2018-07-09T01:24:57.919Z,21.00
2018-07-09T01:30:10.592Z,20.90
2018-07-09T01:40:18.470Z,20.80
2018-07-09T01:50:27.051Z,20.70
2018-07-09T01:55:31.069Z,20.60
2018-07-09T02:00:35.074Z,20.60
2018-07-09T02:05:39.059Z,20.60
2018-07-09T02:10:43.041Z,20.70
2018-07-09T02:15:47.020Z,20.80
2018-07-09T02:20:51.045Z,20.70
2018-07-09T02:25:55.079Z,20.60
2018-07-09T02:30:59.065Z,20.60
2018-07-09T02:36:03.071Z,20.50
2018-07-09T02:41:07.044Z,20.40
2018-07-09T02:46:11.046Z,20.10
2018-07-09T02:51:15.566Z,19.90
2018-07-09T02:56:19.544Z,20.00
2018-07-09T03:06:27.183Z,19.90
2018-07-09T03:11:32.090Z,20.10
2018-07-09T03:16:36.963Z,20.10
2018-07-09T03:21:41.990Z,20.00
2018-07-09T03:26:46.093Z,19.90
2018-07-09T03:31:50.078Z,19.40
2018-07-09T03:41:57.668Z,19.80
2018-07-09T03:47:01.777Z,19.80
2018-07-09T03:52:06.012Z,19.60
2018-07-09T03:57:10.062Z,19.70
2018-07-09T04:02:14.104Z,19.70
2018-07-09T04:12:21.659Z,19.80
2018-07-09T04:17:25.699Z,19.80
2018-07-09T04:22:29.841Z,19.90
2018-07-09T04:27:33.845Z,19.90
2018-07-09T04:32:37.836Z,19.70
2018-07-09T04:37:41.833Z,19.90
2018-07-09T04:42:45.836Z,19.60
2018-07-09T04:47:49.821Z,19.80
2018-07-09T04:52:53.828Z,20.30
2018-07-09T04:57:57.819Z,20.40
2018-07-09T05:03:01.842Z,20.60
2018-07-09T05:08:05.859Z,20.80
2018-07-09T05:18:13.451Z,21.00
2018-07-09T05:23:17.679Z,20.70
2018-07-09T05:28:21.655Z,21.00
2018-07-09T05:33:25.640Z,21.30
2018-07-09T05:38:29.645Z,21.70
2018-07-09T05:43:35.319Z,22.00
2018-07-09T05:48:39.316Z,22.00
2018-07-09T05:53:43.362Z,21.80
2018-07-09T05:58:47.401Z,22.30
2018-07-09T06:03:51.391Z,22.60
2018-07-09T06:08:55.402Z,22.80
2018-07-09T06:13:59.415Z,23.00
2018-07-09T06:19:03.424Z,23.10
2018-07-09T06:29:11.062Z,23.90
2018-07-09T06:34:15.077Z,24.00
2018-07-09T06:39:19.225Z,24.20
2018-07-09T06:44:23.235Z,24.30
2018-07-09T06:49:27.212Z,24.30
2018-07-09T06:54:31.224Z,24.60
2018-07-09T06:59:35.223Z,24.40
2018-07-09T07:04:39.416Z,24.50
2018-07-09T07:09:43.372Z,24.50
2018-07-09T07:14:47.391Z,25.30
2018-07-09T07:19:51.375Z,24.90
2018-07-09T07:24:55.475Z,24.80
2018-07-09T07:35:03.079Z,25.10
2018-07-09T07:40:07.071Z,25.60
2018-07-09T07:45:11.067Z,25.60
2018-07-09T07:50:15.080Z,25.30
2018-07-09T07:55:19.170Z,25.60
2018-07-09T08:00:23.152Z,25.10
2018-07-09T08:05:27.166Z,25.90
2018-07-09T08:10:31.143Z,26.30
2018-07-09T08:15:35.201Z,26.50
2018-07-09T08:20:39.168Z,27.10
2018-07-09T08:25:43.335Z,26.80
2018-07-09T08:30:47.215Z,27.10
2018-07-09T08:35:51.199Z,28.20
2018-07-09T08:40:55.224Z,29.00
2018-07-09T08:45:59.236Z,29.20
2018-07-09T08:51:03.293Z,28.10
2018-07-09T08:56:07.329Z,27.70
2018-07-09T09:06:14.956Z,28.00
2018-07-09T09:11:19.771Z,28.60
2018-07-09T09:16:23.800Z,29.30
2018-07-09T09:21:27.778Z,29.80
2018-07-09T09:26:31.820Z,30.30
2018-07-09T09:31:35.942Z,30.40
2018-07-09T09:36:39.940Z,31.30
2018-07-09T09:46:47.569Z,31.80
2018-07-09T09:51:51.563Z,31.70
2018-07-09T09:56:55.693Z,31.30
2018-07-09T10:01:59.689Z,32.60
2018-07-09T10:07:03.693Z,32.40
2018-07-09T10:12:07.668Z,32.50
2018-07-09T10:17:11.655Z,32.00
2018-07-09T10:22:15.644Z,31.50
2018-07-09T10:32:23.564Z,32.20
2018-07-09T10:37:27.587Z,33.10
2018-07-09T10:42:31.654Z,32.20
2018-07-09T10:47:35.702Z,30.80
2018-07-09T10:52:39.706Z,30.80
2018-07-09T10:57:43.713Z,30.40
2018-07-09T11:02:47.708Z,29.30
2018-07-09T11:07:51.728Z,29.00
2018-07-09T11:12:55.707Z,28.70
2018-07-09T11:23:03.391Z,28.80
2018-07-09T11:28:07.396Z,30.10
2018-07-09T11:33:11.392Z,32.20
2018-07-09T11:38:15.439Z,31.70
2018-07-09T11:43:19.444Z,31.50
2018-07-09T11:48:23.480Z,31.70
2018-07-09T11:53:27.504Z,33.20
2018-07-09T11:58:31.553Z,33.50
2018-07-09T12:03:35.498Z,32.00
2018-07-09T12:08:39.505Z,33.60
2018-07-09T12:13:43.475Z,32.20
2018-07-09T12:18:47.476Z,30.90
2018-07-09T12:23:51.501Z,29.90
2018-07-09T12:28:55.600Z,29.10
2018-07-09T12:33:59.531Z,28.60
2018-07-09T12:39:04.935Z,28.40
2018-07-09T12:44:08.924Z,28.70
2018-07-09T12:49:12.918Z,28.90
2018-07-09T12:54:17.023Z,29.10
2018-07-09T12:59:21.011Z,29.50
2018-07-09T13:04:25.727Z,30.20
2018-07-09T13:09:30.603Z,30.00
2018-07-09T13:14:35.415Z,29.70
2018-07-09T13:19:39.323Z,29.20
2018-07-09T13:24:43.328Z,29.10
2018-07-09T13:29:48.279Z,30.10
2018-07-09T13:34:52.267Z,31.00
2018-07-09T13:39:56.252Z,30.90
2018-07-09T13:50:03.914Z,30.40
2018-07-09T13:55:07.908Z,30.60
2018-07-09T14:00:11.896Z,30.60
2018-07-09T14:05:16.546Z,30.30
2018-07-09T14:10:20.609Z,29.50
2018-07-09T14:15:24.517Z,28.60
2018-07-09T14:20:44.077Z,28.30
2018-07-09T14:25:48.095Z,27.90
2018-07-09T14:30:52.095Z,27.40
2018-07-09T14:40:59.724Z,26.90
2018-07-09T14:51:07.367Z,26.80
2018-07-09T15:01:15.028Z,26.90
2018-07-09T15:06:19.053Z,26.70
2018-07-09T15:11:23.078Z,26.50
2018-07-09T15:16:27.109Z,26.30
2018-07-09T15:21:31.096Z,26.10
2018-07-09T15:26:35.071Z,26.00
2018-07-09T15:31:50.507Z,26.10
2018-07-09T15:36:55.564Z,26.20
2018-07-09T15:41:59.567Z,26.30
2018-07-09T15:47:03.577Z,26.60
2018-07-09T15:52:07.660Z,26.90
2018-07-09T15:57:11.698Z,27.40
2018-07-09T16:02:15.731Z,27.80
2018-07-09T16:07:19.745Z,27.70
2018-07-09T16:12:24.507Z,27.70
2018-07-09T16:17:28.553Z,28.00
2018-07-09T16:22:32.545Z,27.70
2018-07-09T16:27:36.583Z,27.30
2018-07-09T16:32:41.323Z,27.00
2018-07-09T16:37:45.339Z,26.70
2018-07-09T16:42:49.347Z,26.60
2018-07-09T16:47:53.343Z,26.20
2018-07-09T16:52:57.372Z,26.40
2018-07-09T16:58:01.360Z,26.30
2018-07-09T17:03:05.457Z,26.20
2018-07-09T17:08:10.210Z,26.10
2018-07-09T17:13:14.243Z,26.00
2018-07-09T17:18:18.266Z,25.80
2018-07-09T17:23:22.329Z,25.80
2018-07-09T17:28:26.356Z,25.50
2018-07-09T17:33:30.475Z,25.40
2018-07-09T17:38:34.487Z,25.30
2018-07-09T17:43:38.536Z,25.20
2018-07-09T17:48:42.472Z,25.20
2018-07-09T17:53:47.220Z,25.20
2018-07-09T17:58:51.247Z,25.10
2018-07-09T18:03:55.240Z,25.10
2018-07-09T18:08:59.275Z,25.00
2018-07-09T18:14:03.371Z,24.90
2018-07-09T18:19:07.318Z,24.70
2018-07-09T18:24:11.304Z,24.60
2018-07-09T18:29:15.496Z,24.40
2018-07-09T18:34:19.551Z,24.30
2018-07-09T18:39:23.593Z,24.20
2018-07-09T18:44:28.559Z,24.00
2018-07-09T18:49:32.573Z,24.00
2018-07-09T18:54:36.610Z,23.90
2018-07-09T18:59:40.611Z,23.70
2018-07-09T19:04:44.995Z,23.80
2018-07-09T19:09:49.490Z,23.70
2018-07-09T19:14:56.479Z,23.70
2018-07-09T19:20:07.172Z,23.50
2018-07-09T19:25:10.187Z,23.30
2018-07-09T19:30:13.208Z,23.10
2018-07-09T19:35:16.600Z,23.00
2018-07-09T19:40:19.623Z,22.80
2018-07-09T19:45:22.627Z,22.60
2018-07-09T19:50:25.670Z,22.60
2018-07-09T19:55:28.672Z,22.40
2018-07-09T20:00:31.954Z,22.20
2018-07-09T20:05:34.982Z,21.80
2018-07-09T20:10:43.501Z,21.80
2018-07-09T20:15:51.806Z,21.70
2018-07-09T20:20:54.847Z,21.70
2018-07-09T20:25:57.832Z,21.80
2018-07-09T20:31:00.883Z,21.80
2018-07-09T20:41:07.132Z,21.60
2018-07-09T20:46:10.150Z,21.60
2018-07-09T20:51:13.162Z,21.80
2018-07-09T21:01:19.329Z,21.40
2018-07-09T21:06:22.332Z,21.30
2018-07-09T21:11:26.107Z,20.90
2018-07-09T21:16:29.135Z,20.90
2018-07-09T21:21:32.135Z,20.80
2018-07-09T21:26:35.136Z,20.80
2018-07-09T21:31:38.150Z,20.70
2018-07-09T21:36:41.185Z,20.90
2018-07-09T21:41:44.188Z,20.90
2018-07-09T21:46:47.206Z,21.00
2018-07-09T21:51:50.211Z,20.80
2018-07-09T21:56:53.238Z,20.50
2018-07-09T22:01:56.239Z,20.40
2018-07-09T22:06:59.299Z,20.30
2018-07-09T22:12:02.564Z,20.40
2018-07-09T22:17:05.573Z,20.50
2018-07-09T22:22:08.586Z,20.40
2018-07-09T22:27:11.649Z,20.50
2018-07-09T22:32:15.696Z,20.50
2018-07-09T22:37:20.379Z,20.30
2018-07-09T22:42:24.369Z,20.30
2018-07-09T22:47:28.383Z,20.30
2018-07-09T22:52:32.375Z,20.40
2018-07-09T22:57:36.379Z,20.30
2018-07-09T23:02:40.424Z,20.40
2018-07-09T23:13:30.140Z,20.20
2018-07-09T23:18:58.435Z,20.20
2018-07-09T23:24:01.648Z,20.20
2018-07-09T23:29:04.767Z,20.10
2018-07-09T23:34:08.406Z,20.10
2018-07-09T23:39:13.006Z,20.10
2018-07-09T23:44:16.012Z,20.00
2018-07-09T23:49:19.084Z,19.80
2018-07-09T23:54:22.064Z,19.70
2018-07-09T23:59:37.388Z,19.50
